sensor_id;sensor_type;location;lat;lon;timestamp;P1;durP1;ratioP1;P2;durP2;ratioP2
21239;SDS011;10778;48.962;9.018;2023-06-14T00:00:15;4.53;;;3.53;;
21239;SDS011;10778;48.962;9.018;2023-06-14T00:02:41;5.60;;;3.45;;
21239;SDS011;10778;48.962;9.018;2023-06-14T00:05:07;5.38;;;3.75;;
21239;SDS011;10778;48.962;9.018;2023-06-14T00:07:36;4.88;;;4.00;;
21239;SDS011;10778;48.962;9.018;2023-06-14T00:10:08;4.72;;;3.63;;
21239;SDS011;10778;48.962;9.018;2023-06-14T00:12:35;4.80;;;3.47;;
21239;SDS011;10778;48.962;9.018;2023-06-14T00:15:02;7.43;;;3.80;;
21239;SDS011;10778;48.962;9.018;2023-06-14T00:17:28;4.03;;;3.63;;
21239;SDS011;10778;48.962;9.018;2023-06-14T00:19:57;4.65;;;3.83;;
21239;SDS011;10778;48.962;9.018;2023-06-14T00:22:24;4.32;;;3.67;;
21239;SDS011;10778;48.962;9.018;2023-06-14T00:24:51;6.00;;;4.00;;
21239;SDS011;10778;48.962;9.018;2023-06-14T00:27:17;5.15;;;4.00;;
21239;SDS011;10778;48.962;9.018;2023-06-14T00:29:43;6.25;;;4.38;;
21239;SDS011;10778;48.962;9.018;2023-06-14T00:32:09;5.35;;;4.22;;
21239;SDS011;10778;48.962;9.018;2023-06-14T00:34:35;5.50;;;4.13;;
21239;SDS011;10778;48.962;9.018;2023-06-14T00:37:01;5.45;;;4.20;;
21239;SDS011;10778;48.962;9.018;2023-06-14T00:39:27;6.93;;;4.30;;
21239;SDS011;10778;48.962;9.018;2023-06-14T00:41:56;5.40;;;4.22;;
21239;SDS011;10778;48.962;9.018;2023-06-14T00:44:23;10.77;;;4.30;;
21239;SDS011;10778;48.962;9.018;2023-06-14T00:46:49;5.80;;;4.10;;
21239;SDS011;10778;48.962;9.018;2023-06-14T00:49:16;6.28;;;4.32;;
21239;SDS011;10778;48.962;9.018;2023-06-14T00:51:43;4.78;;;3.78;;
21239;SDS011;10778;48.962;9.018;2023-06-14T00:54:11;6.53;;;4.07;;
21239;SDS011;10778;48.962;9.018;2023-06-14T00:56:37;7.03;;;3.97;;
21239;SDS011;10778;48.962;9.018;2023-06-14T00:59:04;4.88;;;3.88;;
21239;SDS011;10778;48.962;9.018;2023-06-14T01:01:30;6.75;;;3.90;;
21239;SDS011;10778;48.962;9.018;2023-06-14T01:04:00;5.70;;;3.80;;
21239;SDS011;10778;48.962;9.018;2023-06-14T01:09:32;5.80;;;4.10;;
21239;SDS011;10778;48.962;9.018;2023-06-14T01:12:13;4.55;;;3.75;;
21239;SDS011;10778;48.962;9.018;2023-06-14T01:14:42;8.25;;;4.47;;
21239;SDS011;10778;48.962;9.018;2023-06-14T01:17:10;5.63;;;4.05;;
21239;SDS011;10778;48.962;9.018;2023-06-14T01:19:42;6.90;;;4.25;;
21239;SDS011;10778;48.962;9.018;2023-06-14T01:22:10;5.13;;;4.15;;
21239;SDS011;10778;48.962;9.018;2023-06-14T01:24:36;4.80;;;3.78;;
21239;SDS011;10778;48.962;9.018;2023-06-14T01:27:05;6.00;;;4.10;;
21239;SDS011;10778;48.962;9.018;2023-06-14T01:29:32;5.13;;;4.13;;
21239;SDS011;10778;48.962;9.018;2023-06-14T01:31:59;5.55;;;4.00;;
21239;SDS011;10778;48.962;9.018;2023-06-14T01:34:30;4.63;;;3.97;;
21239;SDS011;10778;48.962;9.018;2023-06-14T01:36:57;4.93;;;3.95;;
21239;SDS011;10778;48.962;9.018;2023-06-14T01:39:25;5.13;;;4.10;;
21239;SDS011;10778;48.962;9.018;2023-06-14T01:41:52;5.15;;;4.15;;
21239;SDS011;10778;48.962;9.018;2023-06-14T01:44:18;7.10;;;4.30;;
21239;SDS011;10778;48.962;9.018;2023-06-14T01:46:45;5.70;;;4.20;;
21239;SDS011;10778;48.962;9.018;2023-06-14T01:49:11;6.00;;;4.35;;
21239;SDS011;10778;48.962;9.018;2023-06-14T01:51:37;5.45;;;4.10;;
21239;SDS011;10778;48.962;9.018;2023-06-14T01:54:03;5.97;;;4.10;;
21239;SDS011;10778;48.962;9.018;2023-06-14T01:56:30;5.28;;;4.47;;
21239;SDS011;10778;48.962;9.018;2023-06-14T01:58:57;4.40;;;3.92;;
21239;SDS011;10778;48.962;9.018;2023-06-14T02:01:23;5.15;;;4.15;;
21239;SDS011;10778;48.962;9.018;2023-06-14T02:03:50;4.68;;;3.78;;
21239;SDS011;10778;48.962;9.018;2023-06-14T02:06:16;5.13;;;4.28;;
21239;SDS011;10778;48.962;9.018;2023-06-14T02:08:42;6.38;;;4.50;;
21239;SDS011;10778;48.962;9.018;2023-06-14T02:11:08;6.57;;;4.40;;
21239;SDS011;10778;48.962;9.018;2023-06-14T02:13:35;6.50;;;4.22;;
21239;SDS011;10778;48.962;9.018;2023-06-14T02:16:01;6.10;;;4.30;;
21239;SDS011;10778;48.962;9.018;2023-06-14T02:18:28;5.03;;;4.43;;
21239;SDS011;10778;48.962;9.018;2023-06-14T02:20:55;7.55;;;4.32;;
21239;SDS011;10778;48.962;9.018;2023-06-14T02:23:22;5.78;;;4.28;;
21239;SDS011;10778;48.962;9.018;2023-06-14T02:25:47;5.60;;;4.18;;
21239;SDS011;10778;48.962;9.018;2023-06-14T02:28:13;5.32;;;4.43;;
21239;SDS011;10778;48.962;9.018;2023-06-14T02:30:39;6.07;;;4.35;;
21239;SDS011;10778;48.962;9.018;2023-06-14T02:33:06;6.20;;;4.30;;
21239;SDS011;10778;48.962;9.018;2023-06-14T02:35:32;5.55;;;4.32;;
21239;SDS011;10778;48.962;9.018;2023-06-14T02:37:58;5.28;;;4.35;;
21239;SDS011;10778;48.962;9.018;2023-06-14T02:40:24;6.82;;;4.47;;
21239;SDS011;10778;48.962;9.018;2023-06-14T02:42:50;5.35;;;4.38;;
21239;SDS011;10778;48.962;9.018;2023-06-14T02:45:16;6.30;;;4.43;;
21239;SDS011;10778;48.962;9.018;2023-06-14T02:47:43;5.32;;;3.92;;
21239;SDS011;10778;48.962;9.018;2023-06-14T02:50:12;5.85;;;4.50;;
21239;SDS011;10778;48.962;9.018;2023-06-14T02:52:38;4.90;;;4.22;;
21239;SDS011;10778;48.962;9.018;2023-06-14T02:55:04;6.88;;;4.45;;
21239;SDS011;10778;48.962;9.018;2023-06-14T02:57:31;5.38;;;4.30;;
21239;SDS011;10778;48.962;9.018;2023-06-14T02:59:58;6.20;;;4.40;;
21239;SDS011;10778;48.962;9.018;2023-06-14T03:02:23;6.53;;;4.40;;
21239;SDS011;10778;48.962;9.018;2023-06-14T03:04:49;6.03;;;4.18;;
21239;SDS011;10778;48.962;9.018;2023-06-14T03:07:17;5.22;;;4.65;;
21239;SDS011;10778;48.962;9.018;2023-06-14T03:09:45;7.47;;;4.80;;
21239;SDS011;10778;48.962;9.018;2023-06-14T03:12:12;8.40;;;5.63;;
21239;SDS011;10778;48.962;9.018;2023-06-14T03:14:39;6.15;;;4.32;;
21239;SDS011;10778;48.962;9.018;2023-06-14T03:17:07;5.72;;;4.40;;
21239;SDS011;10778;48.962;9.018;2023-06-14T03:19:34;7.60;;;5.10;;
21239;SDS011;10778;48.962;9.018;2023-06-14T03:22:00;6.50;;;4.75;;
21239;SDS011;10778;48.962;9.018;2023-06-14T03:24:29;6.43;;;4.60;;
21239;SDS011;10778;48.962;9.018;2023-06-14T03:26:58;6.35;;;4.97;;
21239;SDS011;10778;48.962;9.018;2023-06-14T03:29:26;6.13;;;4.50;;
21239;SDS011;10778;48.962;9.018;2023-06-14T03:31:56;6.03;;;4.60;;
21239;SDS011;10778;48.962;9.018;2023-06-14T03:34:25;6.95;;;4.63;;
21239;SDS011;10778;48.962;9.018;2023-06-14T03:36:51;5.45;;;4.85;;
21239;SDS011;10778;48.962;9.018;2023-06-14T03:39:18;6.72;;;5.30;;
21239;SDS011;10778;48.962;9.018;2023-06-14T03:41:45;5.72;;;5.13;;
21239;SDS011;10778;48.962;9.018;2023-06-14T03:44:13;7.35;;;5.00;;
21239;SDS011;10778;48.962;9.018;2023-06-14T03:46:42;6.38;;;4.75;;
21239;SDS011;10778;48.962;9.018;2023-06-14T03:49:08;9.18;;;5.05;;
21239;SDS011;10778;48.962;9.018;2023-06-14T03:51:34;6.75;;;4.70;;
21239;SDS011;10778;48.962;9.018;2023-06-14T03:54:01;5.82;;;4.60;;
21239;SDS011;10778;48.962;9.018;2023-06-14T03:56:27;7.68;;;4.90;;
21239;SDS011;10778;48.962;9.018;2023-06-14T03:58:53;5.85;;;4.43;;
21239;SDS011;10778;48.962;9.018;2023-06-14T04:01:22;8.32;;;4.85;;
21239;SDS011;10778;48.962;9.018;2023-06-14T04:03:52;5.38;;;4.63;;
21239;SDS011;10778;48.962;9.018;2023-06-14T04:06:18;6.50;;;4.93;;
21239;SDS011;10778;48.962;9.018;2023-06-14T04:08:45;6.85;;;4.78;;
21239;SDS011;10778;48.962;9.018;2023-06-14T04:11:11;6.10;;;4.80;;
21239;SDS011;10778;48.962;9.018;2023-06-14T04:13:37;7.10;;;5.10;;
21239;SDS011;10778;48.962;9.018;2023-06-14T04:16:05;7.05;;;4.85;;
21239;SDS011;10778;48.962;9.018;2023-06-14T04:18:34;7.18;;;4.60;;
21239;SDS011;10778;48.962;9.018;2023-06-14T04:21:00;5.43;;;4.45;;
21239;SDS011;10778;48.962;9.018;2023-06-14T04:23:27;6.80;;;5.00;;
21239;SDS011;10778;48.962;9.018;2023-06-14T04:25:54;5.75;;;4.78;;
21239;SDS011;10778;48.962;9.018;2023-06-14T04:28:21;5.47;;;4.88;;
21239;SDS011;10778;48.962;9.018;2023-06-14T04:30:53;7.30;;;5.00;;
21239;SDS011;10778;48.962;9.018;2023-06-14T04:33:19;6.78;;;4.65;;
21239;SDS011;10778;48.962;9.018;2023-06-14T04:35:45;7.15;;;4.68;;
21239;SDS011;10778;48.962;9.018;2023-06-14T04:38:13;8.48;;;4.65;;
21239;SDS011;10778;48.962;9.018;2023-06-14T04:40:41;6.65;;;4.95;;
21239;SDS011;10778;48.962;9.018;2023-06-14T04:43:14;8.25;;;4.63;;
21239;SDS011;10778;48.962;9.018;2023-06-14T04:45:43;7.78;;;4.70;;
21239;SDS011;10778;48.962;9.018;2023-06-14T04:48:12;7.70;;;4.70;;
21239;SDS011;10778;48.962;9.018;2023-06-14T04:50:38;7.00;;;4.82;;
21239;SDS011;10778;48.962;9.018;2023-06-14T04:53:05;6.97;;;4.75;;
21239;SDS011;10778;48.962;9.018;2023-06-14T04:55:32;7.18;;;4.78;;
21239;SDS011;10778;48.962;9.018;2023-06-14T04:57:58;6.13;;;5.07;;
21239;SDS011;10778;48.962;9.018;2023-06-14T05:00:26;8.13;;;5.03;;
21239;SDS011;10778;48.962;9.018;2023-06-14T05:02:52;5.72;;;4.63;;
21239;SDS011;10778;48.962;9.018;2023-06-14T05:05:19;6.53;;;5.10;;
21239;SDS011;10778;48.962;9.018;2023-06-14T05:07:45;7.07;;;4.93;;
21239;SDS011;10778;48.962;9.018;2023-06-14T05:10:12;6.13;;;4.85;;
21239;SDS011;10778;48.962;9.018;2023-06-14T05:12:37;8.00;;;5.25;;
21239;SDS011;10778;48.962;9.018;2023-06-14T05:15:05;8.13;;;4.82;;
21239;SDS011;10778;48.962;9.018;2023-06-14T05:17:34;8.43;;;5.32;;
21239;SDS011;10778;48.962;9.018;2023-06-14T05:20:01;6.43;;;4.90;;
21239;SDS011;10778;48.962;9.018;2023-06-14T05:22:28;8.48;;;5.13;;
21239;SDS011;10778;48.962;9.018;2023-06-14T05:24:54;6.97;;;5.38;;
21239;SDS011;10778;48.962;9.018;2023-06-14T05:27:20;7.70;;;5.35;;
21239;SDS011;10778;48.962;9.018;2023-06-14T05:29:45;6.80;;;5.00;;
21239;SDS011;10778;48.962;9.018;2023-06-14T05:32:11;7.53;;;5.45;;
21239;SDS011;10778;48.962;9.018;2023-06-14T05:38:25;8.77;;;4.72;;
21239;SDS011;10778;48.962;9.018;2023-06-14T05:40:51;8.40;;;5.15;;
21239;SDS011;10778;48.962;9.018;2023-06-14T05:43:17;5.95;;;4.70;;
21239;SDS011;10778;48.962;9.018;2023-06-14T05:48:54;7.50;;;5.20;;
21239;SDS011;10778;48.962;9.018;2023-06-14T05:51:20;8.85;;;5.20;;
21239;SDS011;10778;48.962;9.018;2023-06-14T05:53:47;9.43;;;5.25;;
21239;SDS011;10778;48.962;9.018;2023-06-14T05:56:14;16.38;;;13.43;;
21239;SDS011;10778;48.962;9.018;2023-06-14T05:58:40;10.00;;;5.68;;
21239;SDS011;10778;48.962;9.018;2023-06-14T06:01:07;5.70;;;4.90;;
21239;SDS011;10778;48.962;9.018;2023-06-14T06:03:33;6.07;;;4.80;;
21239;SDS011;10778;48.962;9.018;2023-06-14T06:05:59;7.40;;;4.97;;
21239;SDS011;10778;48.962;9.018;2023-06-14T06:08:26;6.00;;;4.90;;
21239;SDS011;10778;48.962;9.018;2023-06-14T06:10:52;9.95;;;4.97;;
21239;SDS011;10778;48.962;9.018;2023-06-14T06:13:18;8.48;;;5.32;;
21239;SDS011;10778;48.962;9.018;2023-06-14T06:15:44;5.90;;;5.00;;
21239;SDS011;10778;48.962;9.018;2023-06-14T06:18:11;7.88;;;4.88;;
21239;SDS011;10778;48.962;9.018;2023-06-14T06:20:37;7.25;;;5.18;;
21239;SDS011;10778;48.962;9.018;2023-06-14T06:23:03;10.65;;;5.43;;
21239;SDS011;10778;48.962;9.018;2023-06-14T06:25:29;13.55;;;5.53;;
21239;SDS011;10778;48.962;9.018;2023-06-14T06:27:57;6.70;;;5.05;;
21239;SDS011;10778;48.962;9.018;2023-06-14T06:30:23;7.85;;;5.13;;
21239;SDS011;10778;48.962;9.018;2023-06-14T06:32:50;9.05;;;4.80;;
21239;SDS011;10778;48.962;9.018;2023-06-14T06:35:17;9.98;;;4.95;;
21239;SDS011;10778;48.962;9.018;2023-06-14T06:37:43;11.45;;;5.25;;
21239;SDS011;10778;48.962;9.018;2023-06-14T06:40:09;8.88;;;4.80;;
21239;SDS011;10778;48.962;9.018;2023-06-14T06:42:35;9.55;;;5.25;;
21239;SDS011;10778;48.962;9.018;2023-06-14T06:45:04;8.20;;;4.93;;
21239;SDS011;10778;48.962;9.018;2023-06-14T06:47:30;5.90;;;4.60;;
21239;SDS011;10778;48.962;9.018;2023-06-14T06:49:56;6.35;;;4.72;;
21239;SDS011;10778;48.962;9.018;2023-06-14T06:52:22;6.05;;;5.00;;
21239;SDS011;10778;48.962;9.018;2023-06-14T06:54:48;6.18;;;5.13;;
21239;SDS011;10778;48.962;9.018;2023-06-14T06:57:16;4.88;;;4.43;;
21239;SDS011;10778;48.962;9.018;2023-06-14T06:59:42;7.55;;;4.70;;
21239;SDS011;10778;48.962;9.018;2023-06-14T07:02:08;8.73;;;4.70;;
21239;SDS011;10778;48.962;9.018;2023-06-14T07:04:34;8.23;;;4.90;;
21239;SDS011;10778;48.962;9.018;2023-06-14T07:07:00;7.85;;;4.88;;
21239;SDS011;10778;48.962;9.018;2023-06-14T07:09:26;6.78;;;4.80;;
21239;SDS011;10778;48.962;9.018;2023-06-14T07:11:52;7.18;;;4.70;;
21239;SDS011;10778;48.962;9.018;2023-06-14T07:14:18;8.10;;;4.80;;
21239;SDS011;10778;48.962;9.018;2023-06-14T07:16:45;7.65;;;4.80;;
21239;SDS011;10778;48.962;9.018;2023-06-14T07:19:12;7.72;;;4.78;;
21239;SDS011;10778;48.962;9.018;2023-06-14T07:21:38;7.00;;;4.43;;
21239;SDS011;10778;48.962;9.018;2023-06-14T07:24:05;7.30;;;4.90;;
21239;SDS011;10778;48.962;9.018;2023-06-14T07:26:32;7.57;;;4.90;;
21239;SDS011;10778;48.962;9.018;2023-06-14T07:28:58;7.70;;;4.47;;
21239;SDS011;10778;48.962;9.018;2023-06-14T07:31:24;8.82;;;5.07;;
21239;SDS011;10778;48.962;9.018;2023-06-14T07:33:50;6.95;;;4.82;;
21239;SDS011;10778;48.962;9.018;2023-06-14T07:36:16;8.70;;;4.60;;
21239;SDS011;10778;48.962;9.018;2023-06-14T07:38:43;8.40;;;4.75;;
21239;SDS011;10778;48.962;9.018;2023-06-14T07:41:09;7.15;;;4.63;;
21239;SDS011;10778;48.962;9.018;2023-06-14T07:43:35;7.88;;;4.57;;
21239;SDS011;10778;48.962;9.018;2023-06-14T07:46:01;5.40;;;4.60;;
21239;SDS011;10778;48.962;9.018;2023-06-14T07:48:28;11.50;;;4.90;;
21239;SDS011;10778;48.962;9.018;2023-06-14T07:50:54;8.35;;;4.90;;
21239;SDS011;10778;48.962;9.018;2023-06-14T07:53:20;5.85;;;4.28;;
21239;SDS011;10778;48.962;9.018;2023-06-14T07:55:46;8.18;;;4.88;;
21239;SDS011;10778;48.962;9.018;2023-06-14T07:58:14;5.68;;;4.70;;
21239;SDS011;10778;48.962;9.018;2023-06-14T08:00:40;8.65;;;4.68;;
21239;SDS011;10778;48.962;9.018;2023-06-14T08:03:06;5.80;;;4.75;;
21239;SDS011;10778;48.962;9.018;2023-06-14T08:05:32;7.38;;;4.82;;
21239;SDS011;10778;48.962;9.018;2023-06-14T08:07:58;7.45;;;4.75;;
21239;SDS011;10778;48.962;9.018;2023-06-14T08:10:24;7.70;;;4.38;;
21239;SDS011;10778;48.962;9.018;2023-06-14T08:12:50;8.32;;;4.78;;
21239;SDS011;10778;48.962;9.018;2023-06-14T08:15:16;5.43;;;4.28;;
21239;SDS011;10778;48.962;9.018;2023-06-14T08:17:43;13.02;;;4.80;;
21239;SDS011;10778;48.962;9.018;2023-06-14T08:20:09;8.93;;;4.70;;
21239;SDS011;10778;48.962;9.018;2023-06-14T08:22:36;9.30;;;5.00;;
21239;SDS011;10778;48.962;9.018;2023-06-14T08:25:03;8.57;;;4.50;;
21239;SDS011;10778;48.962;9.018;2023-06-14T08:27:29;5.90;;;4.50;;
21239;SDS011;10778;48.962;9.018;2023-06-14T08:29:56;6.63;;;4.60;;
21239;SDS011;10778;48.962;9.018;2023-06-14T08:32:22;5.97;;;4.20;;
21239;SDS011;10778;48.962;9.018;2023-06-14T08:34:48;8.85;;;4.38;;
21239;SDS011;10778;48.962;9.018;2023-06-14T08:37:14;6.07;;;4.28;;
21239;SDS011;10778;48.962;9.018;2023-06-14T08:39:40;6.68;;;4.20;;
21239;SDS011;10778;48.962;9.018;2023-06-14T08:42:07;5.32;;;4.30;;
21239;SDS011;10778;48.962;9.018;2023-06-14T08:44:35;9.07;;;4.47;;
21239;SDS011;10778;48.962;9.018;2023-06-14T08:47:02;8.05;;;4.38;;
21239;SDS011;10778;48.962;9.018;2023-06-14T08:49:29;6.10;;;4.15;;
21239;SDS011;10778;48.962;9.018;2023-06-14T08:51:57;7.28;;;4.07;;
21239;SDS011;10778;48.962;9.018;2023-06-14T08:54:27;6.38;;;4.47;;
21239;SDS011;10778;48.962;9.018;2023-06-14T08:56:59;7.80;;;4.40;;
21239;SDS011;10778;48.962;9.018;2023-06-14T08:59:26;8.50;;;4.35;;
21239;SDS011;10778;48.962;9.018;2023-06-14T09:01:53;7.28;;;4.70;;
21239;SDS011;10778;48.962;9.018;2023-06-14T09:04:20;8.05;;;4.10;;
21239;SDS011;10778;48.962;9.018;2023-06-14T09:06:47;7.25;;;4.40;;
21239;SDS011;10778;48.962;9.018;2023-06-14T09:09:19;8.68;;;4.47;;
21239;SDS011;10778;48.962;9.018;2023-06-14T09:11:51;5.93;;;4.25;;
21239;SDS011;10778;48.962;9.018;2023-06-14T09:14:18;6.90;;;4.38;;
21239;SDS011;10778;48.962;9.018;2023-06-14T09:16:44;7.10;;;4.38;;
21239;SDS011;10778;48.962;9.018;2023-06-14T09:19:20;8.20;;;4.30;;
21239;SDS011;10778;48.962;9.018;2023-06-14T09:21:48;7.50;;;4.68;;
21239;SDS011;10778;48.962;9.018;2023-06-14T09:24:15;8.10;;;4.03;;
21239;SDS011;10778;48.962;9.018;2023-06-14T09:26:41;5.32;;;4.05;;
21239;SDS011;10778;48.962;9.018;2023-06-14T09:29:08;5.68;;;4.05;;
21239;SDS011;10778;48.962;9.018;2023-06-14T09:31:35;8.43;;;4.55;;
21239;SDS011;10778;48.962;9.018;2023-06-14T09:34:01;8.77;;;4.30;;
21239;SDS011;10778;48.962;9.018;2023-06-14T09:36:28;6.30;;;4.28;;
21239;SDS011;10778;48.962;9.018;2023-06-14T09:38:57;6.45;;;3.90;;
21239;SDS011;10778;48.962;9.018;2023-06-14T09:41:34;9.63;;;6.53;;
21239;SDS011;10778;48.962;9.018;2023-06-14T09:44:01;5.93;;;3.88;;
21239;SDS011;10778;48.962;9.018;2023-06-14T09:46:29;8.55;;;4.47;;
21239;SDS011;10778;48.962;9.018;2023-06-14T09:48:57;10.40;;;4.07;;
21239;SDS011;10778;48.962;9.018;2023-06-14T09:51:23;7.50;;;4.22;;
21239;SDS011;10778;48.962;9.018;2023-06-14T09:53:50;7.45;;;4.00;;
21239;SDS011;10778;48.962;9.018;2023-06-14T09:56:17;6.90;;;3.90;;
21239;SDS011;10778;48.962;9.018;2023-06-14T09:58:51;5.18;;;3.75;;
21239;SDS011;10778;48.962;9.018;2023-06-14T10:01:21;7.20;;;3.95;;
21239;SDS011;10778;48.962;9.018;2023-06-14T10:03:49;6.78;;;3.70;;
21239;SDS011;10778;48.962;9.018;2023-06-14T10:06:20;7.90;;;3.97;;
21239;SDS011;10778;48.962;9.018;2023-06-14T10:08:50;6.38;;;3.90;;
21239;SDS011;10778;48.962;9.018;2023-06-14T10:11:21;7.32;;;3.70;;
21239;SDS011;10778;48.962;9.018;2023-06-14T10:13:48;5.18;;;3.85;;
21239;SDS011;10778;48.962;9.018;2023-06-14T10:16:17;5.28;;;3.45;;
21239;SDS011;10778;48.962;9.018;2023-06-14T10:18:53;5.82;;;3.60;;
21239;SDS011;10778;48.962;9.018;2023-06-14T10:21:51;7.60;;;3.50;;
21239;SDS011;10778;48.962;9.018;2023-06-14T10:24:31;7.28;;;3.85;;
21239;SDS011;10778;48.962;9.018;2023-06-14T10:26:59;7.57;;;3.70;;
21239;SDS011;10778;48.962;9.018;2023-06-14T10:29:27;5.72;;;3.60;;
21239;SDS011;10778;48.962;9.018;2023-06-14T10:32:00;6.03;;;3.60;;
21239;SDS011;10778;48.962;9.018;2023-06-14T10:34:27;7.25;;;3.80;;
21239;SDS011;10778;48.962;9.018;2023-06-14T10:37:00;7.82;;;3.78;;
21239;SDS011;10778;48.962;9.018;2023-06-14T10:39:28;5.63;;;3.38;;
21239;SDS011;10778;48.962;9.018;2023-06-14T10:41:54;7.32;;;3.92;;
21239;SDS011;10778;48.962;9.018;2023-06-14T10:46:48;5.05;;;3.30;;
21239;SDS011;10778;48.962;9.018;2023-06-14T10:49:18;5.45;;;3.30;;
21239;SDS011;10778;48.962;9.018;2023-06-14T10:51:50;6.78;;;3.60;;
21239;SDS011;10778;48.962;9.018;2023-06-14T10:54:17;4.28;;;3.47;;
21239;SDS011;10778;48.962;9.018;2023-06-14T10:56:52;7.55;;;3.72;;
21239;SDS011;10778;48.962;9.018;2023-06-14T10:59:19;6.05;;;3.67;;
21239;SDS011;10778;48.962;9.018;2023-06-14T11:02:19;5.80;;;3.50;;
21239;SDS011;10778;48.962;9.018;2023-06-14T11:04:52;6.55;;;3.58;;
21239;SDS011;10778;48.962;9.018;2023-06-14T11:10:02;7.45;;;3.47;;
21239;SDS011;10778;48.962;9.018;2023-06-14T11:12:37;7.82;;;3.65;;
21239;SDS011;10778;48.962;9.018;2023-06-14T11:15:05;7.32;;;3.65;;
21239;SDS011;10778;48.962;9.018;2023-06-14T11:17:32;5.78;;;3.47;;
21239;SDS011;10778;48.962;9.018;2023-06-14T11:22:39;4.68;;;3.33;;
21239;SDS011;10778;48.962;9.018;2023-06-14T11:25:08;4.82;;;3.50;;
21239;SDS011;10778;48.962;9.018;2023-06-14T11:27:35;5.10;;;3.47;;
21239;SDS011;10778;48.962;9.018;2023-06-14T11:30:02;4.88;;;3.25;;
21239;SDS011;10778;48.962;9.018;2023-06-14T11:32:28;5.43;;;3.70;;
21239;SDS011;10778;48.962;9.018;2023-06-14T11:34:56;5.13;;;3.65;;
21239;SDS011;10778;48.962;9.018;2023-06-14T11:37:25;7.88;;;3.83;;
21239;SDS011;10778;48.962;9.018;2023-06-14T11:39:57;4.57;;;3.33;;
21239;SDS011;10778;48.962;9.018;2023-06-14T11:42:24;5.60;;;3.70;;
21239;SDS011;10778;48.962;9.018;2023-06-14T11:44:52;5.63;;;3.22;;
21239;SDS011;10778;48.962;9.018;2023-06-14T11:47:19;5.40;;;3.35;;
21239;SDS011;10778;48.962;9.018;2023-06-14T11:49:46;4.05;;;3.45;;
21239;SDS011;10778;48.962;9.018;2023-06-14T11:52:12;5.20;;;3.65;;
21239;SDS011;10778;48.962;9.018;2023-06-14T11:54:38;4.70;;;3.47;;
21239;SDS011;10778;48.962;9.018;2023-06-14T11:57:06;5.60;;;3.33;;
21239;SDS011;10778;48.962;9.018;2023-06-14T11:59:51;6.60;;;3.50;;
21239;SDS011;10778;48.962;9.018;2023-06-14T12:02:18;3.90;;;3.22;;
21239;SDS011;10778;48.962;9.018;2023-06-14T12:04:47;4.05;;;3.65;;
21239;SDS011;10778;48.962;9.018;2023-06-14T12:07:17;4.47;;;3.50;;
21239;SDS011;10778;48.962;9.018;2023-06-14T12:12:21;4.72;;;3.80;;
21239;SDS011;10778;48.962;9.018;2023-06-14T12:14:49;4.65;;;3.53;;
21239;SDS011;10778;48.962;9.018;2023-06-14T12:17:16;5.25;;;3.40;;
21239;SDS011;10778;48.962;9.018;2023-06-14T12:19:43;4.75;;;3.40;;
21239;SDS011;10778;48.962;9.018;2023-06-14T12:22:11;5.00;;;3.33;;
21239;SDS011;10778;48.962;9.018;2023-06-14T12:24:38;9.85;;;3.50;;
21239;SDS011;10778;48.962;9.018;2023-06-14T12:27:05;5.28;;;3.40;;
21239;SDS011;10778;48.962;9.018;2023-06-14T12:29:31;8.65;;;3.38;;
21239;SDS011;10778;48.962;9.018;2023-06-14T12:31:57;6.35;;;3.50;;
21239;SDS011;10778;48.962;9.018;2023-06-14T12:34:23;6.63;;;3.90;;
21239;SDS011;10778;48.962;9.018;2023-06-14T12:36:50;5.63;;;3.42;;
21239;SDS011;10778;48.962;9.018;2023-06-14T12:39:16;5.15;;;3.33;;
21239;SDS011;10778;48.962;9.018;2023-06-14T12:41:43;5.95;;;3.20;;
21239;SDS011;10778;48.962;9.018;2023-06-14T12:44:10;5.40;;;3.45;;
21239;SDS011;10778;48.962;9.018;2023-06-14T12:46:36;6.15;;;3.70;;
21239;SDS011;10778;48.962;9.018;2023-06-14T12:49:05;6.05;;;3.60;;
21239;SDS011;10778;48.962;9.018;2023-06-14T12:51:33;7.65;;;3.40;;
21239;SDS011;10778;48.962;9.018;2023-06-14T12:53:59;7.60;;;3.90;;
21239;SDS011;10778;48.962;9.018;2023-06-14T12:56:25;5.03;;;3.40;;
21239;SDS011;10778;48.962;9.018;2023-06-14T12:58:52;4.75;;;3.17;;
21239;SDS011;10778;48.962;9.018;2023-06-14T13:01:18;4.55;;;3.67;;
21239;SDS011;10778;48.962;9.018;2023-06-14T13:03:45;5.80;;;3.83;;
21239;SDS011;10778;48.962;9.018;2023-06-14T13:06:12;4.32;;;3.60;;
21239;SDS011;10778;48.962;9.018;2023-06-14T13:08:38;4.70;;;3.20;;
21239;SDS011;10778;48.962;9.018;2023-06-14T13:11:04;6.78;;;3.65;;
21239;SDS011;10778;48.962;9.018;2023-06-14T13:13:30;6.32;;;3.63;;
21239;SDS011;10778;48.962;9.018;2023-06-14T13:15:56;4.65;;;3.50;;
21239;SDS011;10778;48.962;9.018;2023-06-14T13:18:22;5.47;;;3.40;;
21239;SDS011;10778;48.962;9.018;2023-06-14T13:20:48;5.07;;;3.72;;
21239;SDS011;10778;48.962;9.018;2023-06-14T13:23:15;4.80;;;3.38;;
21239;SDS011;10778;48.962;9.018;2023-06-14T13:25:41;4.78;;;3.25;;
21239;SDS011;10778;48.962;9.018;2023-06-14T13:28:07;4.75;;;3.45;;
21239;SDS011;10778;48.962;9.018;2023-06-14T13:30:33;4.93;;;3.58;;
21239;SDS011;10778;48.962;9.018;2023-06-14T13:32:59;4.38;;;3.38;;
21239;SDS011;10778;48.962;9.018;2023-06-14T13:35:26;4.70;;;3.33;;
21239;SDS011;10778;48.962;9.018;2023-06-14T13:37:52;4.90;;;3.30;;
21239;SDS011;10778;48.962;9.018;2023-06-14T13:40:18;6.93;;;3.58;;
21239;SDS011;10778;48.962;9.018;2023-06-14T13:42:45;5.25;;;3.70;;
21239;SDS011;10778;48.962;9.018;2023-06-14T13:45:12;3.92;;;3.28;;
21239;SDS011;10778;48.962;9.018;2023-06-14T13:47:38;4.38;;;3.30;;
21239;SDS011;10778;48.962;9.018;2023-06-14T13:50:05;4.43;;;3.35;;
21239;SDS011;10778;48.962;9.018;2023-06-14T13:52:31;6.50;;;3.50;;
21239;SDS011;10778;48.962;9.018;2023-06-14T13:54:57;5.15;;;3.17;;
21239;SDS011;10778;48.962;9.018;2023-06-14T13:57:23;4.68;;;3.55;;
21239;SDS011;10778;48.962;9.018;2023-06-14T13:59:49;5.63;;;3.55;;
21239;SDS011;10778;48.962;9.018;2023-06-14T14:02:15;4.10;;;3.55;;
21239;SDS011;10778;48.962;9.018;2023-06-14T14:04:41;4.60;;;3.70;;
21239;SDS011;10778;48.962;9.018;2023-06-14T14:07:07;6.70;;;3.70;;
21239;SDS011;10778;48.962;9.018;2023-06-14T14:09:34;6.93;;;3.60;;
21239;SDS011;10778;48.962;9.018;2023-06-14T14:12:01;4.82;;;3.65;;
21239;SDS011;10778;48.962;9.018;2023-06-14T14:14:28;5.07;;;3.70;;
21239;SDS011;10778;48.962;9.018;2023-06-14T14:16:54;5.65;;;3.40;;
21239;SDS011;10778;48.962;9.018;2023-06-14T14:19:21;4.80;;;3.72;;
21239;SDS011;10778;48.962;9.018;2023-06-14T14:21:47;5.78;;;3.70;;
21239;SDS011;10778;48.962;9.018;2023-06-14T14:24:13;4.63;;;3.55;;
21239;SDS011;10778;48.962;9.018;2023-06-14T14:26:39;4.82;;;3.70;;
21239;SDS011;10778;48.962;9.018;2023-06-14T14:29:06;3.90;;;3.38;;
21239;SDS011;10778;48.962;9.018;2023-06-14T14:31:32;6.90;;;3.90;;
21239;SDS011;10778;48.962;9.018;2023-06-14T14:33:58;6.32;;;3.80;;
21239;SDS011;10778;48.962;9.018;2023-06-14T14:36:24;4.70;;;3.50;;
21239;SDS011;10778;48.962;9.018;2023-06-14T14:38:49;5.32;;;3.85;;
21239;SDS011;10778;48.962;9.018;2023-06-14T14:41:17;5.57;;;3.40;;
21239;SDS011;10778;48.962;9.018;2023-06-14T14:43:43;6.93;;;3.58;;
21239;SDS011;10778;48.962;9.018;2023-06-14T14:46:09;5.38;;;3.60;;
21239;SDS011;10778;48.962;9.018;2023-06-14T14:48:35;6.00;;;3.60;;
21239;SDS011;10778;48.962;9.018;2023-06-14T14:51:01;3.83;;;3.38;;
21239;SDS011;10778;48.962;9.018;2023-06-14T14:53:28;5.75;;;3.97;;
21239;SDS011;10778;48.962;9.018;2023-06-14T14:55:54;4.60;;;3.33;;
21239;SDS011;10778;48.962;9.018;2023-06-14T14:58:20;4.22;;;3.28;;
21239;SDS011;10778;48.962;9.018;2023-06-14T15:00:46;5.10;;;3.53;;
21239;SDS011;10778;48.962;9.018;2023-06-14T15:03:13;5.35;;;3.30;;
21239;SDS011;10778;48.962;9.018;2023-06-14T15:05:39;6.15;;;3.53;;
21239;SDS011;10778;48.962;9.018;2023-06-14T15:08:06;4.80;;;3.42;;